METAR stanice u blizini

 

LYBE - Beograd / Surčin, Srbija
Ažurirano: 24/04/2019 17:30
Vedro
Vedro
 Pravac vetra IJI
Vetar: IJI 28 km/h
Temperatura: 23°C
Tačka rose: 10°C
Vlažnost: 44%
Pritisak: 1017 hPa
Pregled: Vedro
Vidljivost: greater than 10 km
2019/04/24 15:30 LYBE 241530Z 12015KT CAVOK 23/10 Q1017 NOSIG
LYBT - Beograd / Batajnica, Srbija
Ažurirano: 24/04/2019 17:30
Vedro
Vedro
 Pravac vetra I
Vetar: I 26 km/h
Temperatura: 23°C
Tačka rose: 10°C
Vlažnost: 44%
Pritisak: 1017 hPa
Pregled: Vedro
Vidljivost: greater than 10 km
2019/04/24 15:30 LYBT 241530Z 08014KT 040V110 CAVOK 23/10 Q1017 NOSIG
LYVR - Vršac, Srbija
Ažurirano: 24/04/2019 17:30
Vedro
Vedro
 Pravac vetra JI
Vetar: JI 41 km/h, Maks.: 76 km/h
Temperatura: 20°C
Tačka rose: 6°C
Vlažnost: 40%
Pritisak: 1018 hPa
Pregled: Vedro
Vidljivost: greater than 10 km
2019/04/24 15:30 LYVR 241530Z 14022G41KT CAVOK 20/06 Q1018 NOSIG
 
LYKV - Lađevci, Srbija
Ažurirano: 24/04/2019 17:30
Partly Cloudy
Partly Cloudy
 Pravac vetra IJI
Vetar: IJI 24 km/h
Temperatura: 23°C
Tačka rose: 10°C
Vlažnost: 44%
Pritisak: 1017 hPa
Oblaci: Partly Cloudy
Vidljivost: 10 km
Cloud details: Partly Cloudy 1524 m
2019/04/24 15:30 LYKV 241530Z 12013KT 9999 SCT050 23/10 Q1017 NOSIG
LYNI - Niš, Srbija
Ažurirano: 24/04/2019 17:30
Vedro
Vedro
 Pravac vetra I
Vetar: I 19 km/h
Temperatura: 22°C
Tačka rose: 9°C
Vlažnost: 44%
Pritisak: 1019 hPa
Pregled: Vedro
Vidljivost: greater than 10 km
2019/04/24 15:30 LYNI 241530Z 08010KT CAVOK 22/09 Q1019 NOSIG
BKPR - Priština, Srbija
Ažurirano: 24/04/2019 18:00
Mostly Cloudy
Mostly Cloudy
 Pravac vetra JJI
Vetar: JJI 20 km/h
Temperatura: 20°C
Tačka rose: 8°C
Vlažnost: 46%
Pritisak: 1020 hPa
Oblaci: Mostly Cloudy
Vidljivost: 10 km
Cloud details: Few Clouds 1524 m
Mostly Cloudy 5486 m
2019/04/24 16:00 BKPR 241600Z 15011KT 9999 FEW050 BKN180 20/08 Q1020 NOSIG
 
LHPP - Pecs / Pogany, Hungary
Ažurirano: 24/04/2019 17:15
Partly Cloudy
Partly Cloudy
 Pravac vetra SI
Vetar: SI 11 km/h
Temperatura: 20°C
Tačka rose: 14°C
Vlažnost: 69%
Pritisak: 1016 hPa
Oblaci: Partly Cloudy
Vidljivost: 10 km
Cloud details: Few Clouds 1006 m
Partly Cloudy 1524 m
2019/04/24 15:15 LHPP 241515Z 05006KT 9999 FEW033CB SCT050 20/14 Q1016
LHUD - Szeged, Hungary
Ažurirano: 24/04/2019 01:45
NOT Current
Vedro
Vedro
 Pravac vetra JI
Vetar: JI 22 km/h
Temperatura: 11°C
Tačka rose: 6°C
Vlažnost: 72%
Pritisak: 1016 hPa
Pregled: Vedro
Vidljivost: greater than 10 km
2019/04/23 23:45 LHUD 232345Z 14012KT CAVOK 11/06 Q1016 RERA
LRTR - Timisoara, Romania
Ažurirano: 24/04/2019 17:30
Vedro
Vedro
 Pravac vetra J
Vetar: J 22 km/h
Temperatura: 23°C
Tačka rose: 8°C
Vlažnost: 38%
Pritisak: 1018 hPa
Pregled: Vedro
Vidljivost: greater than 10 km
2019/04/24 15:30 LRTR 241530Z 17012KT CAVOK 23/08 Q1018 NOSIG
 
LRCV - Craiova, Romania
Ažurirano: 24/04/2019 17:30
Vedro
Vedro
 Pravac vetra I
Vetar: I 24 km/h
Temperatura: 18°C
Tačka rose: 7°C
Vlažnost: 49%
Pritisak: 1023 hPa
Pregled: Vedro
Vidljivost: greater than 10 km
2019/04/24 15:30 LRCV 241530Z 08013KT CAVOK 18/07 Q1023
LBSF - Sofia, Bulgaria
Ažurirano: 24/04/2019 17:30
Vedro
Vedro
 Pravac vetra JI
Vetar: JI 26 km/h
Temperatura: 19°C
Tačka rose: 7°C
Vlažnost: 46%
Pritisak: 1022 hPa
Pregled: Vedro
Vidljivost: greater than 10 km
2019/04/24 15:30 LBSF 241530Z 13014KT CAVOK 19/07 Q1022 NOSIG
LWSK - Skoplje, Makedonija
Ažurirano: 24/04/2019 18:00
Vedro
Vedro
 Pravac vetra JI
Vetar: JI 24 km/h
Temperatura: 20°C
Tačka rose: 5°C
Vlažnost: 38%
Pritisak: 1021 hPa
Pregled: Vedro
Vidljivost: greater than 10 km
2019/04/24 16:00 LWSK 241600Z 14013KT CAVOK 20/05 Q1021 TEMPO 16020KT
 
LYPG - Podgorica, Crna Gora
Ažurirano: 24/04/2019 17:30
Vedro
Vedro
 Pravac vetra ZJZ
Vetar: ZJZ 6 km/h
Temperatura: 25°C
Tačka rose: 7°C
Vlažnost: 32%
Pritisak: 1019 hPa
Pregled: Vedro
Vidljivost: greater than 10 km
2019/04/24 15:30 LYPG 241530Z 24003KT 170V290 CAVOK 25/07 Q1019 NOSIG
LQSA - Sarajevo, Bosna i Hercegovina
Ažurirano: 24/04/2019 17:30
Few Clouds
Few Clouds
 Pravac vetra JJZ
Vetar: JJZ 17 km/h, Maks.: 37 km/h
Temperatura: 22°C
Tačka rose: 6°C
Vlažnost: 36%
Pritisak: 1017 hPa
Oblaci: Few Clouds
Vidljivost: 10 km
Cloud details: Few Clouds 2134 m
2019/04/24 15:30 LQSA 241530Z 21009G20KT 160V250 9999 FEW070 22/06 Q1017 NOSIG
LDOS - Osijek, Hrvatksa
Ažurirano: 24/04/2019 17:30
Mostly Cloudy
Mostly Cloudy
 Pravac vetra J
Vetar: J 17 km/h
Temperatura: 25°C
Tačka rose: 11°C
Vlažnost: 42%
Pritisak: 1015 hPa
Oblaci: Mostly Cloudy
Vidljivost: 10 km
Cloud details: Mostly Cloudy 1219 m
2019/04/24 15:30 LDOS 241530Z 17009KT 9999 BKN040 25/11 Q1015